Decoded Metar for LEZL (SEVILLA in SPAIN) (IATA:SVQ) | Meteo·Mobile Aviation Weather
aviador You're here:

LEZL Decoded Metar

SEVILLA in SPAIN
Report Time2018-10-22 09:00:00
UTC Time2018-10-22 09:31:44
Flight Rules vfr VFR
Wind060° at 07 kt
W.Decomp.*RWY 09: 6.2 kt HW 3.3 kt LCW
W.Rank060° ranks 5
Current wind is above 060° avg. (6.3)
Visibility9999 m
Phenomena:N/A
Clouds:N/A
Expected CloudBase > 1,600 ft AGL from Temp-Dew spread
CeilingNone
Temp20°C (ISA +5)
Dew Point16°C (78% RH)
AAT19.5°C
QNH1020 hPa
Density Alt719 ft
Elevation102 ft
Report Wrong Elevation
Raw Report
LEZL 220900Z 06007KT 030V090 CAVOK 20/16 Q1020 NOSIG=

Extra information for LEZL:More info

Metar Taf Metar & Taf Last 4 Metars F.Rules Stats Wind Profile Meteogram Temp Stats Airport Information Weather charts Add Link Nearby VenuesMetar ALERT Operation Metar Decoded Social comments